sensor_id;sensor_type;location;lat;lon;timestamp;pressure;altitude;pressure_sealevel;temperature;humidity
12666;BME280;58531;59.050;17.416;2022-08-26T00:01:09;101683.66;;;10.30;100.00
12666;BME280;58531;59.050;17.416;2022-08-26T00:03:38;101682.59;;;10.24;100.00
12666;BME280;58531;59.050;17.416;2022-08-26T00:06:05;101679.13;;;10.27;100.00
12666;BME280;58531;59.050;17.416;2022-08-26T00:08:32;101679.47;;;10.29;100.00
12666;BME280;58531;59.050;17.416;2022-08-26T00:10:59;101674.13;;;10.29;100.00
12666;BME280;58531;59.050;17.416;2022-08-26T00:13:26;101673.28;;;10.55;100.00
12666;BME280;58531;59.050;17.416;2022-08-26T00:15:53;101666.78;;;10.75;100.00
12666;BME280;58531;59.050;17.416;2022-08-26T00:18:20;101669.06;;;10.96;100.00
12666;BME280;58531;59.050;17.416;2022-08-26T00:20:49;101661.63;;;11.07;100.00
12666;BME280;58531;59.050;17.416;2022-08-26T00:23:16;101673.41;;;10.90;100.00
12666;BME280;58531;59.050;17.416;2022-08-26T00:25:43;101669.06;;;10.77;100.00
12666;BME280;58531;59.050;17.416;2022-08-26T00:28:11;101660.16;;;10.64;100.00
12666;BME280;58531;59.050;17.416;2022-08-26T00:30:38;101647.69;;;10.57;100.00
12666;BME280;58531;59.050;17.416;2022-08-26T00:33:05;101657.25;;;10.55;100.00
12666;BME280;58531;59.050;17.416;2022-08-26T00:35:33;101657.38;;;10.48;100.00
12666;BME280;58531;59.050;17.416;2022-08-26T00:38:01;101653.53;;;10.49;100.00
12666;BME280;58531;59.050;17.416;2022-08-26T00:40:31;101649.78;;;10.47;100.00
12666;BME280;58531;59.050;17.416;2022-08-26T00:42:59;101648.56;;;10.51;100.00
12666;BME280;58531;59.050;17.416;2022-08-26T00:45:27;101653.16;;;10.70;100.00
12666;BME280;58531;59.050;17.416;2022-08-26T00:48:00;101648.66;;;11.06;100.00
12666;BME280;58531;59.050;17.416;2022-08-26T00:50:32;101645.00;;;11.16;100.00
12666;BME280;58531;59.050;17.416;2022-08-26T00:53:02;101642.75;;;11.14;100.00
12666;BME280;58531;59.050;17.416;2022-08-26T00:55:32;101638.25;;;11.11;100.00
12666;BME280;58531;59.050;17.416;2022-08-26T00:58:02;101644.28;;;10.96;100.00
12666;BME280;58531;59.050;17.416;2022-08-26T01:00:31;101647.44;;;10.91;100.00
12666;BME280;58531;59.050;17.416;2022-08-26T01:03:00;101643.03;;;10.81;100.00
12666;BME280;58531;59.050;17.416;2022-08-26T01:05:29;101634.47;;;10.89;100.00
12666;BME280;58531;59.050;17.416;2022-08-26T01:07:56;101637.47;;;11.11;100.00
12666;BME280;58531;59.050;17.416;2022-08-26T01:10:27;101639.25;;;11.17;100.00
12666;BME280;58531;59.050;17.416;2022-08-26T01:12:57;101652.25;;;11.35;100.00
12666;BME280;58531;59.050;17.416;2022-08-26T01:15:31;101648.91;;;11.31;100.00
12666;BME280;58531;59.050;17.416;2022-08-26T01:18:00;101638.16;;;11.15;100.00
12666;BME280;58531;59.050;17.416;2022-08-26T01:20:35;101643.03;;;11.00;100.00
12666;BME280;58531;59.050;17.416;2022-08-26T01:23:07;101636.94;;;11.00;100.00
12666;BME280;58531;59.050;17.416;2022-08-26T01:25:38;101637.91;;;10.90;100.00
12666;BME280;58531;59.050;17.416;2022-08-26T01:28:14;101632.09;;;10.95;100.00
12666;BME280;58531;59.050;17.416;2022-08-26T01:30:42;101626.75;;;10.95;100.00
12666;BME280;58531;59.050;17.416;2022-08-26T01:33:14;101627.91;;;10.94;100.00
12666;BME280;58531;59.050;17.416;2022-08-26T01:35:42;101633.59;;;10.96;100.00
12666;BME280;58531;59.050;17.416;2022-08-26T01:38:11;101634.78;;;11.11;100.00
12666;BME280;58531;59.050;17.416;2022-08-26T01:40:39;101637.66;;;11.20;100.00
12666;BME280;58531;59.050;17.416;2022-08-26T01:43:10;101634.72;;;11.34;100.00
12666;BME280;58531;59.050;17.416;2022-08-26T01:45:41;101628.34;;;11.28;100.00
12666;BME280;58531;59.050;17.416;2022-08-26T01:48:14;101628.41;;;11.24;100.00
12666;BME280;58531;59.050;17.416;2022-08-26T01:50:43;101619.06;;;11.32;100.00
12666;BME280;58531;59.050;17.416;2022-08-26T01:53:15;101627.38;;;11.38;100.00
12666;BME280;58531;59.050;17.416;2022-08-26T01:55:47;101610.97;;;11.36;100.00
12666;BME280;58531;59.050;17.416;2022-08-26T01:58:18;101622.00;;;11.38;100.00
12666;BME280;58531;59.050;17.416;2022-08-26T02:00:46;101621.00;;;11.48;100.00
12666;BME280;58531;59.050;17.416;2022-08-26T02:03:14;101613.31;;;11.50;100.00
12666;BME280;58531;59.050;17.416;2022-08-26T02:05:50;101616.50;;;11.45;100.00
12666;BME280;58531;59.050;17.416;2022-08-26T02:08:22;101613.84;;;11.45;100.00
12666;BME280;58531;59.050;17.416;2022-08-26T02:10:51;101613.06;;;11.44;100.00
12666;BME280;58531;59.050;17.416;2022-08-26T02:13:18;101609.31;;;11.42;100.00
12666;BME280;58531;59.050;17.416;2022-08-26T02:15:45;101602.13;;;11.39;100.00
12666;BME280;58531;59.050;17.416;2022-08-26T02:18:13;101604.47;;;11.37;100.00
12666;BME280;58531;59.050;17.416;2022-08-26T02:20:40;101602.47;;;11.41;100.00
12666;BME280;58531;59.050;17.416;2022-08-26T02:23:07;101605.63;;;11.52;100.00
12666;BME280;58531;59.050;17.416;2022-08-26T02:25:43;101604.47;;;11.53;100.00
12666;BME280;58531;59.050;17.416;2022-08-26T02:28:13;101597.19;;;11.53;100.00
12666;BME280;58531;59.050;17.416;2022-08-26T02:30:41;101592.78;;;11.47;100.00
12666;BME280;58531;59.050;17.416;2022-08-26T02:33:08;101592.34;;;11.48;100.00
12666;BME280;58531;59.050;17.416;2022-08-26T02:35:36;101596.63;;;11.46;100.00
12666;BME280;58531;59.050;17.416;2022-08-26T02:38:04;101593.38;;;11.54;100.00
12666;BME280;58531;59.050;17.416;2022-08-26T02:40:33;101586.09;;;11.55;100.00
12666;BME280;58531;59.050;17.416;2022-08-26T02:43:02;101577.91;;;11.62;100.00
12666;BME280;58531;59.050;17.416;2022-08-26T02:45:29;101575.75;;;11.73;100.00
12666;BME280;58531;59.050;17.416;2022-08-26T02:47:57;101571.56;;;11.72;100.00
12666;BME280;58531;59.050;17.416;2022-08-26T02:50:25;101566.72;;;11.67;100.00
12666;BME280;58531;59.050;17.416;2022-08-26T02:52:53;101565.69;;;11.61;100.00
12666;BME280;58531;59.050;17.416;2022-08-26T02:55:20;101573.41;;;11.59;100.00
12666;BME280;58531;59.050;17.416;2022-08-26T02:57:47;101571.16;;;11.57;100.00
12666;BME280;58531;59.050;17.416;2022-08-26T03:00:15;101566.53;;;11.58;100.00
12666;BME280;58531;59.050;17.416;2022-08-26T03:02:43;101578.00;;;11.58;100.00
12666;BME280;58531;59.050;17.416;2022-08-26T03:05:10;101579.91;;;11.58;100.00
12666;BME280;58531;59.050;17.416;2022-08-26T03:07:37;101575.72;;;11.57;100.00
12666;BME280;58531;59.050;17.416;2022-08-26T03:10:05;101578.19;;;11.48;100.00
12666;BME280;58531;59.050;17.416;2022-08-26T03:12:33;101580.06;;;11.35;100.00
12666;BME280;58531;59.050;17.416;2022-08-26T03:15:00;101573.25;;;11.30;100.00
12666;BME280;58531;59.050;17.416;2022-08-26T03:17:29;101564.16;;;11.28;100.00
12666;BME280;58531;59.050;17.416;2022-08-26T03:19:58;101571.50;;;11.24;100.00
12666;BME280;58531;59.050;17.416;2022-08-26T03:22:25;101568.00;;;11.27;100.00
12666;BME280;58531;59.050;17.416;2022-08-26T03:24:55;101571.34;;;11.31;100.00
12666;BME280;58531;59.050;17.416;2022-08-26T03:27:24;101569.00;;;11.33;100.00
12666;BME280;58531;59.050;17.416;2022-08-26T03:29:51;101567.22;;;11.26;100.00
12666;BME280;58531;59.050;17.416;2022-08-26T03:32:36;101567.91;;;11.30;100.00
12666;BME280;58531;59.050;17.416;2022-08-26T03:35:04;101564.69;;;11.39;100.00
12666;BME280;58531;59.050;17.416;2022-08-26T03:37:33;101560.34;;;11.45;100.00
12666;BME280;58531;59.050;17.416;2022-08-26T03:40:01;101549.97;;;11.47;100.00
12666;BME280;58531;59.050;17.416;2022-08-26T03:42:28;101557.47;;;11.52;100.00
12666;BME280;58531;59.050;17.416;2022-08-26T03:44:55;101554.81;;;11.52;100.00
12666;BME280;58531;59.050;17.416;2022-08-26T03:47:22;101556.31;;;11.53;100.00
12666;BME280;58531;59.050;17.416;2022-08-26T03:49:51;101549.66;;;11.61;100.00
12666;BME280;58531;59.050;17.416;2022-08-26T03:52:20;101555.09;;;11.57;100.00
12666;BME280;58531;59.050;17.416;2022-08-26T03:54:47;101555.09;;;11.57;100.00
12666;BME280;58531;59.050;17.416;2022-08-26T03:57:14;101553.28;;;11.51;100.00
12666;BME280;58531;59.050;17.416;2022-08-26T03:59:41;101554.47;;;11.34;100.00
12666;BME280;58531;59.050;17.416;2022-08-26T04:02:08;101549.88;;;11.18;100.00
12666;BME280;58531;59.050;17.416;2022-08-26T04:04:35;101547.50;;;11.04;100.00
12666;BME280;58531;59.050;17.416;2022-08-26T04:07:04;101549.72;;;10.90;100.00
12666;BME280;58531;59.050;17.416;2022-08-26T04:09:31;101552.69;;;10.76;100.00
12666;BME280;58531;59.050;17.416;2022-08-26T04:11:58;101555.50;;;10.69;100.00
12666;BME280;58531;59.050;17.416;2022-08-26T04:14:26;101545.22;;;10.67;100.00
12666;BME280;58531;59.050;17.416;2022-08-26T04:16:54;101555.75;;;10.94;100.00
12666;BME280;58531;59.050;17.416;2022-08-26T04:19:22;101557.16;;;11.34;100.00
12666;BME280;58531;59.050;17.416;2022-08-26T04:21:50;101557.00;;;11.57;100.00
12666;BME280;58531;59.050;17.416;2022-08-26T04:24:20;101555.34;;;11.63;100.00
12666;BME280;58531;59.050;17.416;2022-08-26T04:26:48;101557.84;;;11.70;100.00
12666;BME280;58531;59.050;17.416;2022-08-26T04:29:18;101557.50;;;11.83;100.00
12666;BME280;58531;59.050;17.416;2022-08-26T04:31:47;101550.59;;;11.98;100.00
12666;BME280;58531;59.050;17.416;2022-08-26T04:34:15;101554.94;;;12.08;100.00
12666;BME280;58531;59.050;17.416;2022-08-26T04:36:44;101559.31;;;12.02;100.00
12666;BME280;58531;59.050;17.416;2022-08-26T04:39:12;101553.78;;;12.09;100.00
12666;BME280;58531;59.050;17.416;2022-08-26T04:41:43;101550.75;;;12.07;100.00
12666;BME280;58531;59.050;17.416;2022-08-26T04:44:12;101560.44;;;12.17;100.00
12666;BME280;58531;59.050;17.416;2022-08-26T04:46:39;101556.50;;;12.50;100.00
12666;BME280;58531;59.050;17.416;2022-08-26T04:49:07;101552.59;;;12.80;100.00
12666;BME280;58531;59.050;17.416;2022-08-26T04:51:34;101548.81;;;12.93;100.00
12666;BME280;58531;59.050;17.416;2022-08-26T04:54:03;101547.81;;;12.87;100.00
12666;BME280;58531;59.050;17.416;2022-08-26T04:56:35;101549.59;;;12.78;100.00
12666;BME280;58531;59.050;17.416;2022-08-26T04:59:05;101546.50;;;12.79;100.00
12666;BME280;58531;59.050;17.416;2022-08-26T05:01:35;101556.53;;;13.03;100.00
12666;BME280;58531;59.050;17.416;2022-08-26T05:04:03;101556.00;;;13.46;100.00
12666;BME280;58531;59.050;17.416;2022-08-26T05:06:30;101553.44;;;13.89;100.00
12666;BME280;58531;59.050;17.416;2022-08-26T05:08:57;101557.06;;;14.28;100.00
12666;BME280;58531;59.050;17.416;2022-08-26T05:11:27;101557.78;;;14.93;100.00
12666;BME280;58531;59.050;17.416;2022-08-26T05:13:57;101555.41;;;16.01;100.00
12666;BME280;58531;59.050;17.416;2022-08-26T05:16:27;101561.06;;;17.48;100.00
12666;BME280;58531;59.050;17.416;2022-08-26T05:18:55;101566.47;;;19.05;100.00
12666;BME280;58531;59.050;17.416;2022-08-26T05:21:29;101556.75;;;20.27;99.64
12666;BME280;58531;59.050;17.416;2022-08-26T05:24:11;101557.38;;;21.35;90.93
12666;BME280;58531;59.050;17.416;2022-08-26T05:26:41;101560.00;;;21.18;85.38
12666;BME280;58531;59.050;17.416;2022-08-26T05:29:15;101559.63;;;21.36;83.60
12666;BME280;58531;59.050;17.416;2022-08-26T05:31:44;101557.34;;;21.71;81.51
12666;BME280;58531;59.050;17.416;2022-08-26T05:34:14;101568.72;;;22.93;72.76
12666;BME280;58531;59.050;17.416;2022-08-26T05:36:51;101557.53;;;23.35;67.67
12666;BME280;58531;59.050;17.416;2022-08-26T05:39:33;101566.69;;;23.27;67.03
12666;BME280;58531;59.050;17.416;2022-08-26T05:42:03;101569.41;;;24.05;62.89
12666;BME280;58531;59.050;17.416;2022-08-26T05:44:37;101568.13;;;24.12;59.47
12666;BME280;58531;59.050;17.416;2022-08-26T05:47:19;101572.25;;;23.84;59.76
12666;BME280;58531;59.050;17.416;2022-08-26T05:49:51;101569.69;;;22.74;62.49
12666;BME280;58531;59.050;17.416;2022-08-26T05:52:45;101562.38;;;21.42;65.36
12666;BME280;58531;59.050;17.416;2022-08-26T05:55:20;101566.38;;;20.53;69.18
12666;BME280;58531;59.050;17.416;2022-08-26T05:58:05;101568.50;;;20.44;69.84
12666;BME280;58531;59.050;17.416;2022-08-26T06:00:56;101564.25;;;20.12;69.32
12666;BME280;58531;59.050;17.416;2022-08-26T06:06:36;101559.56;;;19.73;72.19
12666;BME280;58531;59.050;17.416;2022-08-26T06:09:07;101554.25;;;20.49;72.31
12666;BME280;58531;59.050;17.416;2022-08-26T06:11:49;101548.97;;;21.33;67.00
12666;BME280;58531;59.050;17.416;2022-08-26T06:14:26;101562.03;;;21.70;66.34
12666;BME280;58531;59.050;17.416;2022-08-26T06:16:52;101558.81;;;22.52;63.76
12666;BME280;58531;59.050;17.416;2022-08-26T06:19:21;101558.34;;;24.27;57.18
12666;BME280;58531;59.050;17.416;2022-08-26T06:21:53;101549.09;;;26.09;50.06
12666;BME280;58531;59.050;17.416;2022-08-26T06:24:46;101547.47;;;26.81;48.83
12666;BME280;58531;59.050;17.416;2022-08-26T06:27:30;101547.06;;;27.81;45.80
12666;BME280;58531;59.050;17.416;2022-08-26T06:29:57;101547.69;;;27.87;45.69
12666;BME280;58531;59.050;17.416;2022-08-26T06:32:24;101547.06;;;28.48;43.85
12666;BME280;58531;59.050;17.416;2022-08-26T06:34:53;101548.88;;;28.12;43.90
12666;BME280;58531;59.050;17.416;2022-08-26T06:37:20;101549.53;;;28.59;43.31
12666;BME280;58531;59.050;17.416;2022-08-26T06:39:49;101550.00;;;28.50;42.49
12666;BME280;58531;59.050;17.416;2022-08-26T06:42:25;101558.72;;;28.41;43.30
12666;BME280;58531;59.050;17.416;2022-08-26T06:44:52;101557.16;;;28.73;40.50
12666;BME280;58531;59.050;17.416;2022-08-26T06:47:19;101557.72;;;28.92;41.12
12666;BME280;58531;59.050;17.416;2022-08-26T06:49:46;101548.38;;;28.75;41.83
12666;BME280;58531;59.050;17.416;2022-08-26T06:52:18;101561.56;;;29.52;40.89
12666;BME280;58531;59.050;17.416;2022-08-26T06:54:45;101560.88;;;30.02;39.58
12666;BME280;58531;59.050;17.416;2022-08-26T06:57:14;101556.66;;;29.02;41.49
12666;BME280;58531;59.050;17.416;2022-08-26T06:59:45;101551.94;;;28.62;41.02
12666;BME280;58531;59.050;17.416;2022-08-26T07:02:15;101555.88;;;28.95;40.90
12666;BME280;58531;59.050;17.416;2022-08-26T07:04:42;101561.19;;;28.93;41.29
12666;BME280;58531;59.050;17.416;2022-08-26T07:07:13;101564.56;;;29.34;40.14
12666;BME280;58531;59.050;17.416;2022-08-26T07:09:41;101565.56;;;29.87;39.94
12666;BME280;58531;59.050;17.416;2022-08-26T07:12:08;101563.94;;;29.48;40.66
12666;BME280;58531;59.050;17.416;2022-08-26T07:14:35;101556.81;;;30.03;39.86
12666;BME280;58531;59.050;17.416;2022-08-26T07:17:02;101563.47;;;29.29;39.85
12666;BME280;58531;59.050;17.416;2022-08-26T07:19:29;101555.84;;;29.93;39.87
12666;BME280;58531;59.050;17.416;2022-08-26T07:21:55;101562.78;;;30.97;37.93
12666;BME280;58531;59.050;17.416;2022-08-26T07:24:22;101555.06;;;30.28;38.53
12666;BME280;58531;59.050;17.416;2022-08-26T07:26:51;101548.09;;;30.72;37.59
12666;BME280;58531;59.050;17.416;2022-08-26T07:29:18;101550.00;;;28.16;42.27
12666;BME280;58531;59.050;17.416;2022-08-26T07:31:44;101548.81;;;28.04;43.19
12666;BME280;58531;59.050;17.416;2022-08-26T07:34:11;101550.31;;;28.26;43.75
12666;BME280;58531;59.050;17.416;2022-08-26T07:36:39;101537.78;;;28.38;41.95
12666;BME280;58531;59.050;17.416;2022-08-26T07:39:06;101543.91;;;28.44;42.30
12666;BME280;58531;59.050;17.416;2022-08-26T07:41:32;101545.25;;;26.80;45.66
12666;BME280;58531;59.050;17.416;2022-08-26T07:44:02;101537.06;;;26.48;47.15
12666;BME280;58531;59.050;17.416;2022-08-26T07:46:29;101546.78;;;25.76;48.43
12666;BME280;58531;59.050;17.416;2022-08-26T07:48:56;101541.81;;;25.08;50.54
12666;BME280;58531;59.050;17.416;2022-08-26T07:51:24;101544.88;;;24.40;52.86
12666;BME280;58531;59.050;17.416;2022-08-26T07:53:52;101535.66;;;24.03;54.02
12666;BME280;58531;59.050;17.416;2022-08-26T07:56:19;101546.25;;;23.66;55.42
12666;BME280;58531;59.050;17.416;2022-08-26T07:58:47;101535.03;;;22.91;56.96
12666;BME280;58531;59.050;17.416;2022-08-26T08:01:15;101538.50;;;22.97;56.62
12666;BME280;58531;59.050;17.416;2022-08-26T08:03:42;101539.25;;;22.65;57.89
12666;BME280;58531;59.050;17.416;2022-08-26T08:06:09;101533.53;;;23.01;57.73
12666;BME280;58531;59.050;17.416;2022-08-26T08:08:36;101534.16;;;23.51;58.43
12666;BME280;58531;59.050;17.416;2022-08-26T08:11:06;101532.38;;;23.70;57.20
12666;BME280;58531;59.050;17.416;2022-08-26T08:13:32;101539.25;;;24.27;54.70
12666;BME280;58531;59.050;17.416;2022-08-26T08:15:59;101532.22;;;24.02;52.87
12666;BME280;58531;59.050;17.416;2022-08-26T08:18:28;101532.63;;;23.66;55.02
12666;BME280;58531;59.050;17.416;2022-08-26T08:20:54;101530.53;;;23.21;55.42
12666;BME280;58531;59.050;17.416;2022-08-26T08:23:22;101530.53;;;23.21;57.25
12666;BME280;58531;59.050;17.416;2022-08-26T08:25:49;101522.88;;;23.08;56.03
12666;BME280;58531;59.050;17.416;2022-08-26T08:28:16;101523.13;;;23.10;55.86
12666;BME280;58531;59.050;17.416;2022-08-26T08:30:43;101528.72;;;23.51;55.28
12666;BME280;58531;59.050;17.416;2022-08-26T08:33:09;101516.81;;;23.54;51.97
12666;BME280;58531;59.050;17.416;2022-08-26T08:35:38;101519.31;;;23.46;51.67
12666;BME280;58531;59.050;17.416;2022-08-26T08:38:06;101513.72;;;23.06;53.27
12666;BME280;58531;59.050;17.416;2022-08-26T08:40:33;101513.22;;;23.13;55.37
12666;BME280;58531;59.050;17.416;2022-08-26T08:43:06;101513.19;;;23.24;55.72
12666;BME280;58531;59.050;17.416;2022-08-26T08:45:38;101517.13;;;23.34;56.10
12666;BME280;58531;59.050;17.416;2022-08-26T08:48:09;101507.38;;;23.49;54.79
12666;BME280;58531;59.050;17.416;2022-08-26T08:50:42;101507.28;;;22.98;56.27
12666;BME280;58531;59.050;17.416;2022-08-26T08:53:14;101499.66;;;22.53;55.99
12666;BME280;58531;59.050;17.416;2022-08-26T08:55:48;101500.56;;;22.06;58.35
12666;BME280;58531;59.050;17.416;2022-08-26T08:58:19;101494.63;;;21.91;61.29
12666;BME280;58531;59.050;17.416;2022-08-26T09:00:50;101497.84;;;22.06;59.88
12666;BME280;58531;59.050;17.416;2022-08-26T09:03:30;101493.88;;;21.90;60.07
12666;BME280;58531;59.050;17.416;2022-08-26T09:06:02;101490.88;;;21.88;60.72
12666;BME280;58531;59.050;17.416;2022-08-26T09:08:42;101489.72;;;22.33;58.48
12666;BME280;58531;59.050;17.416;2022-08-26T09:11:10;101486.69;;;23.02;58.06
12666;BME280;58531;59.050;17.416;2022-08-26T09:13:39;101487.28;;;23.58;54.88
12666;BME280;58531;59.050;17.416;2022-08-26T09:16:14;101486.38;;;23.39;53.68
12666;BME280;58531;59.050;17.416;2022-08-26T09:18:55;101483.97;;;23.02;55.30
12666;BME280;58531;59.050;17.416;2022-08-26T09:21:27;101477.13;;;22.63;56.26
12666;BME280;58531;59.050;17.416;2022-08-26T09:23:54;101477.81;;;22.91;56.47
12666;BME280;58531;59.050;17.416;2022-08-26T09:26:23;101478.56;;;23.08;56.03
12666;BME280;58531;59.050;17.416;2022-08-26T09:28:55;101476.91;;;23.51;55.24
12666;BME280;58531;59.050;17.416;2022-08-26T09:31:24;101477.25;;;23.25;52.89
12666;BME280;58531;59.050;17.416;2022-08-26T09:34:07;101478.28;;;23.17;53.82
12666;BME280;58531;59.050;17.416;2022-08-26T09:36:40;101477.88;;;23.59;52.25
12666;BME280;58531;59.050;17.416;2022-08-26T09:39:30;101477.00;;;24.20;50.78
12666;BME280;58531;59.050;17.416;2022-08-26T09:42:08;101479.63;;;24.66;50.91
12666;BME280;58531;59.050;17.416;2022-08-26T09:44:51;101466.84;;;24.74;49.71
12666;BME280;58531;59.050;17.416;2022-08-26T09:47:21;101472.13;;;25.20;47.31
12666;BME280;58531;59.050;17.416;2022-08-26T09:49:56;101465.84;;;25.01;49.50
12666;BME280;58531;59.050;17.416;2022-08-26T09:52:26;101465.03;;;24.82;49.42
12666;BME280;58531;59.050;17.416;2022-08-26T09:55:00;101458.66;;;24.98;48.58
12666;BME280;58531;59.050;17.416;2022-08-26T09:57:29;101467.59;;;24.51;48.13
12666;BME280;58531;59.050;17.416;2022-08-26T09:59:57;101463.03;;;23.95;51.12
12666;BME280;58531;59.050;17.416;2022-08-26T10:02:35;101467.63;;;23.19;52.27
12666;BME280;58531;59.050;17.416;2022-08-26T10:05:07;101467.47;;;22.62;54.91
12666;BME280;58531;59.050;17.416;2022-08-26T10:07:40;101462.97;;;22.26;55.83
12666;BME280;58531;59.050;17.416;2022-08-26T10:10:12;101450.88;;;22.27;55.97
12666;BME280;58531;59.050;17.416;2022-08-26T10:12:47;101458.31;;;22.65;56.13
12666;BME280;58531;59.050;17.416;2022-08-26T10:15:17;101449.78;;;23.18;54.79
12666;BME280;58531;59.050;17.416;2022-08-26T10:17:48;101458.28;;;23.55;55.90
12666;BME280;58531;59.050;17.416;2022-08-26T10:20:19;101459.41;;;23.76;51.92
12666;BME280;58531;59.050;17.416;2022-08-26T10:22:54;101460.06;;;23.47;51.44
12666;BME280;58531;59.050;17.416;2022-08-26T10:25:28;101456.53;;;23.57;51.75
12666;BME280;58531;59.050;17.416;2022-08-26T10:28:03;101457.41;;;23.82;51.19
12666;BME280;58531;59.050;17.416;2022-08-26T10:30:37;101453.81;;;24.32;53.24
12666;BME280;58531;59.050;17.416;2022-08-26T10:33:08;101454.97;;;24.42;49.90
12666;BME280;58531;59.050;17.416;2022-08-26T10:35:40;101453.22;;;24.15;50.30
12666;BME280;58531;59.050;17.416;2022-08-26T10:38:14;101441.44;;;23.97;50.06
12666;BME280;58531;59.050;17.416;2022-08-26T10:40:48;101438.09;;;23.74;50.86
12666;BME280;58531;59.050;17.416;2022-08-26T10:43:20;101437.38;;;23.68;51.87
12666;BME280;58531;59.050;17.416;2022-08-26T10:45:50;101430.41;;;23.27;52.46
12666;BME280;58531;59.050;17.416;2022-08-26T10:48:23;101431.47;;;23.02;53.72
12666;BME280;58531;59.050;17.416;2022-08-26T10:50:52;101428.72;;;23.07;54.33
12666;BME280;58531;59.050;17.416;2022-08-26T10:53:28;101419.84;;;22.96;53.71
12666;BME280;58531;59.050;17.416;2022-08-26T10:55:59;101422.31;;;22.99;53.87
12666;BME280;58531;59.050;17.416;2022-08-26T10:58:52;101414.13;;;23.05;52.71
12666;BME280;58531;59.050;17.416;2022-08-26T11:01:26;101410.69;;;22.99;51.90
12666;BME280;58531;59.050;17.416;2022-08-26T11:07:28;101409.19;;;23.09;52.77
12666;BME280;58531;59.050;17.416;2022-08-26T11:09:57;101407.72;;;22.97;51.29
12666;BME280;58531;59.050;17.416;2022-08-26T11:12:54;101406.53;;;22.81;51.62
12666;BME280;58531;59.050;17.416;2022-08-26T11:15:56;101402.09;;;22.68;52.79
12666;BME280;58531;59.050;17.416;2022-08-26T11:18:43;101397.91;;;22.61;51.47
12666;BME280;58531;59.050;17.416;2022-08-26T11:21:51;101390.25;;;22.27;52.70
12666;BME280;58531;59.050;17.416;2022-08-26T11:25:02;101395.69;;;22.65;53.01
12666;BME280;58531;59.050;17.416;2022-08-26T11:27:53;101380.09;;;22.60;51.87
12666;BME280;58531;59.050;17.416;2022-08-26T11:30:48;101379.13;;;22.41;51.58
12666;BME280;58531;59.050;17.416;2022-08-26T11:36:35;101376.63;;;22.54;50.72
12666;BME280;58531;59.050;17.416;2022-08-26T11:39:11;101376.38;;;22.52;51.67
12666;BME280;58531;59.050;17.416;2022-08-26T11:41:43;101372.16;;;22.62;54.91
12666;BME280;58531;59.050;17.416;2022-08-26T11:44:10;101367.13;;;22.88;52.52
12666;BME280;58531;59.050;17.416;2022-08-26T11:46:37;101376.47;;;23.09;51.36
12666;BME280;58531;59.050;17.416;2022-08-26T11:49:06;101368.56;;;23.00;51.78
12666;BME280;58531;59.050;17.416;2022-08-26T11:51:34;101361.66;;;22.93;50.96
12666;BME280;58531;59.050;17.416;2022-08-26T11:54:09;101357.25;;;22.74;52.58
12666;BME280;58531;59.050;17.416;2022-08-26T11:56:38;101359.22;;;22.79;51.82
12666;BME280;58531;59.050;17.416;2022-08-26T11:59:09;101357.22;;;22.85;51.45
12666;BME280;58531;59.050;17.416;2022-08-26T12:01:38;101353.94;;;23.08;51.94
12666;BME280;58531;59.050;17.416;2022-08-26T12:04:09;101347.22;;;23.15;50.73
12666;BME280;58531;59.050;17.416;2022-08-26T12:06:44;101355.66;;;23.06;50.53
12666;BME280;58531;59.050;17.416;2022-08-26T12:09:20;101354.25;;;22.83;50.55
12666;BME280;58531;59.050;17.416;2022-08-26T12:11:47;101345.34;;;22.77;50.85
12666;BME280;58531;59.050;17.416;2022-08-26T12:14:19;101342.66;;;22.72;51.69
12666;BME280;58531;59.050;17.416;2022-08-26T12:16:46;101341.19;;;22.71;52.54
12666;BME280;58531;59.050;17.416;2022-08-26T12:19:24;101348.31;;;22.79;52.94
12666;BME280;58531;59.050;17.416;2022-08-26T12:21:56;101341.66;;;22.74;52.13
12666;BME280;58531;59.050;17.416;2022-08-26T12:24:24;101345.34;;;22.77;53.09
12666;BME280;58531;59.050;17.416;2022-08-26T12:27:04;101336.47;;;22.71;53.17
12666;BME280;58531;59.050;17.416;2022-08-26T12:29:36;101340.44;;;22.75;52.84
12666;BME280;58531;59.050;17.416;2022-08-26T12:32:09;101340.31;;;22.97;52.89
12666;BME280;58531;59.050;17.416;2022-08-26T12:34:38;101332.38;;;23.05;52.51
12666;BME280;58531;59.050;17.416;2022-08-26T12:37:05;101331.06;;;23.22;52.16
12666;BME280;58531;59.050;17.416;2022-08-26T12:39:35;101327.38;;;23.20;51.80
12666;BME280;58531;59.050;17.416;2022-08-26T12:42:05;101325.91;;;23.19;52.23
12666;BME280;58531;59.050;17.416;2022-08-26T12:44:49;101325.34;;;23.26;52.76
12666;BME280;58531;59.050;17.416;2022-08-26T12:47:26;101324.31;;;23.29;52.96
12666;BME280;58531;59.050;17.416;2022-08-26T12:49:59;101327.16;;;23.12;52.09
12666;BME280;58531;59.050;17.416;2022-08-26T12:52:29;101320.28;;;22.95;53.01
12666;BME280;58531;59.050;17.416;2022-08-26T12:54:58;101313.06;;;23.03;52.56
12666;BME280;58531;59.050;17.416;2022-08-26T12:57:29;101323.47;;;22.99;52.45
12666;BME280;58531;59.050;17.416;2022-08-26T13:00:22;101317.50;;;23.11;52.04
12666;BME280;58531;59.050;17.416;2022-08-26T13:02:50;101319.81;;;23.37;52.00
12666;BME280;58531;59.050;17.416;2022-08-26T13:05:22;101321.78;;;23.42;52.82